CYBG

CFB Bagotville Airport

Bagotville, Quebec, Canada

CYBG 200337Z 27003KT 7SM FEW009 OVC034 16/15 A3011 RMK ST2SC6 SLP200

Observed Flight Rules
Sep-20 @ 03:37 UTC (21 minutes ago)
 
Visual Flight Rules
Wind Visibility Clouds
270° at 3 knots 7 miles
  • Few at 900' AGL
  • Overcast at 3,400' AGL
Temperatures Readings
Current 16°C / 61°F
Dewpoint 15°C / 59°F
Humidity 94%
Altimeter 30.11" Hg
Pressure 1020 hPa
Elevation 159
Observed Flight Rules
Sep-20 @ 03:37 UTC
(21 minutes ago)
 
VFR
Wind Visibility
270° at 3 knots 7 miles
Clouds
  • Few at 900' AGL
  • Overcast at 3,400' AGL
Temperature Dewpoint
16°C / 61°F 15°C / 59°F
Humidity Altimeter Pressure
94% 30.11" Hg 1020 hPa